sensor_id;sensor_type;location;lat;lon;timestamp;P1;durP1;ratioP1;P2;durP2;ratioP2
23288;SDS011;11813;50.834;4.280;2022-07-29T00:01:33;4.65;;;2.17;;
23288;SDS011;11813;50.834;4.280;2022-07-29T00:03:58;4.32;;;2.25;;
23288;SDS011;11813;50.834;4.280;2022-07-29T00:06:24;3.28;;;1.95;;
23288;SDS011;11813;50.834;4.280;2022-07-29T00:08:50;2.33;;;1.70;;
23288;SDS011;11813;50.834;4.280;2022-07-29T00:11:15;2.50;;;1.70;;
23288;SDS011;11813;50.834;4.280;2022-07-29T00:13:41;5.53;;;2.22;;
23288;SDS011;11813;50.834;4.280;2022-07-29T00:16:06;3.10;;;2.08;;
23288;SDS011;11813;50.834;4.280;2022-07-29T00:18:32;6.00;;;2.08;;
23288;SDS011;11813;50.834;4.280;2022-07-29T00:20:58;5.40;;;2.15;;
23288;SDS011;11813;50.834;4.280;2022-07-29T00:23:24;3.80;;;1.83;;
23288;SDS011;11813;50.834;4.280;2022-07-29T00:25:49;7.20;;;2.13;;
23288;SDS011;11813;50.834;4.280;2022-07-29T00:28:15;3.50;;;1.98;;
23288;SDS011;11813;50.834;4.280;2022-07-29T00:30:40;4.13;;;1.90;;
23288;SDS011;11813;50.834;4.280;2022-07-29T00:33:07;4.15;;;2.17;;
23288;SDS011;11813;50.834;4.280;2022-07-29T00:35:34;5.45;;;2.03;;
23288;SDS011;11813;50.834;4.280;2022-07-29T00:38:09;3.00;;;2.03;;
23288;SDS011;11813;50.834;4.280;2022-07-29T00:40:35;3.55;;;1.67;;
23288;SDS011;11813;50.834;4.280;2022-07-29T00:43:01;4.63;;;2.17;;
23288;SDS011;11813;50.834;4.280;2022-07-29T00:45:27;4.57;;;2.13;;
23288;SDS011;11813;50.834;4.280;2022-07-29T00:47:52;5.57;;;2.00;;
23288;SDS011;11813;50.834;4.280;2022-07-29T00:50:18;5.60;;;1.77;;
23288;SDS011;11813;50.834;4.280;2022-07-29T00:52:44;6.25;;;2.33;;
23288;SDS011;11813;50.834;4.280;2022-07-29T00:55:11;5.78;;;2.38;;
23288;SDS011;11813;50.834;4.280;2022-07-29T00:57:38;4.07;;;2.00;;
23288;SDS011;11813;50.834;4.280;2022-07-29T01:00:06;5.82;;;2.05;;
23288;SDS011;11813;50.834;4.280;2022-07-29T01:02:34;3.40;;;1.95;;
23288;SDS011;11813;50.834;4.280;2022-07-29T01:05:00;5.68;;;2.10;;
23288;SDS011;11813;50.834;4.280;2022-07-29T01:07:26;4.95;;;1.88;;
23288;SDS011;11813;50.834;4.280;2022-07-29T01:09:53;5.47;;;1.90;;
23288;SDS011;11813;50.834;4.280;2022-07-29T01:12:22;5.32;;;1.77;;
23288;SDS011;11813;50.834;4.280;2022-07-29T01:14:53;4.65;;;1.90;;
23288;SDS011;11813;50.834;4.280;2022-07-29T01:23:01;6.78;;;2.00;;
23288;SDS011;11813;50.834;4.280;2022-07-29T01:31:22;5.45;;;2.22;;
23288;SDS011;11813;50.834;4.280;2022-07-29T01:33:55;7.35;;;2.15;;
23288;SDS011;11813;50.834;4.280;2022-07-29T01:36:31;6.57;;;2.10;;
23288;SDS011;11813;50.834;4.280;2022-07-29T01:39:05;2.33;;;1.73;;
23288;SDS011;11813;50.834;4.280;2022-07-29T01:41:50;5.93;;;2.30;;
23288;SDS011;11813;50.834;4.280;2022-07-29T01:44:46;4.72;;;1.90;;
23288;SDS011;11813;50.834;4.280;2022-07-29T01:47:19;5.90;;;2.28;;
23288;SDS011;11813;50.834;4.280;2022-07-29T01:49:49;7.50;;;2.17;;
23288;SDS011;11813;50.834;4.280;2022-07-29T01:52:27;5.68;;;2.05;;
23288;SDS011;11813;50.834;4.280;2022-07-29T01:55:02;5.60;;;2.60;;
23288;SDS011;11813;50.834;4.280;2022-07-29T01:57:34;3.60;;;2.00;;
23288;SDS011;11813;50.834;4.280;2022-07-29T02:00:03;4.07;;;2.40;;
23288;SDS011;11813;50.834;4.280;2022-07-29T02:02:30;3.00;;;2.10;;
23288;SDS011;11813;50.834;4.280;2022-07-29T02:04:57;5.75;;;2.03;;
23288;SDS011;11813;50.834;4.280;2022-07-29T02:07:25;3.40;;;1.90;;
23288;SDS011;11813;50.834;4.280;2022-07-29T02:09:54;4.83;;;1.77;;
23288;SDS011;11813;50.834;4.280;2022-07-29T02:12:21;3.25;;;1.75;;
23288;SDS011;11813;50.834;4.280;2022-07-29T02:14:50;4.83;;;2.20;;
23288;SDS011;11813;50.834;4.280;2022-07-29T02:17:21;3.77;;;2.37;;
23288;SDS011;11813;50.834;4.280;2022-07-29T02:19:55;4.28;;;1.95;;
23288;SDS011;11813;50.834;4.280;2022-07-29T02:22:24;4.80;;;2.33;;
23288;SDS011;11813;50.834;4.280;2022-07-29T02:24:53;6.00;;;2.00;;
23288;SDS011;11813;50.834;4.280;2022-07-29T02:27:20;5.87;;;2.40;;
23288;SDS011;11813;50.834;4.280;2022-07-29T02:29:48;5.70;;;2.10;;
23288;SDS011;11813;50.834;4.280;2022-07-29T02:32:16;9.23;;;2.83;;
23288;SDS011;11813;50.834;4.280;2022-07-29T02:34:43;3.93;;;2.00;;
23288;SDS011;11813;50.834;4.280;2022-07-29T02:37:11;4.67;;;2.57;;
23288;SDS011;11813;50.834;4.280;2022-07-29T02:39:38;3.60;;;2.00;;
23288;SDS011;11813;50.834;4.280;2022-07-29T02:42:07;3.85;;;2.33;;
23288;SDS011;11813;50.834;4.280;2022-07-29T02:44:35;4.68;;;1.88;;
23288;SDS011;11813;50.834;4.280;2022-07-29T02:47:03;5.57;;;2.30;;
23288;SDS011;11813;50.834;4.280;2022-07-29T02:50:05;4.07;;;2.17;;
23288;SDS011;11813;50.834;4.280;2022-07-29T02:53:02;4.43;;;2.30;;
23288;SDS011;11813;50.834;4.280;2022-07-29T02:55:56;6.87;;;2.10;;
23288;SDS011;11813;50.834;4.280;2022-07-29T02:58:34;5.30;;;2.03;;
23288;SDS011;11813;50.834;4.280;2022-07-29T03:01:13;5.17;;;2.17;;
23288;SDS011;11813;50.834;4.280;2022-07-29T03:03:41;11.20;;;2.30;;
23288;SDS011;11813;50.834;4.280;2022-07-29T03:06:09;5.83;;;2.30;;
23288;SDS011;11813;50.834;4.280;2022-07-29T03:08:38;4.07;;;2.90;;
23288;SDS011;11813;50.834;4.280;2022-07-29T03:11:04;3.37;;;2.37;;
23288;SDS011;11813;50.834;4.280;2022-07-29T03:13:32;4.00;;;2.13;;
23288;SDS011;11813;50.834;4.280;2022-07-29T03:15:58;8.23;;;2.27;;
23288;SDS011;11813;50.834;4.280;2022-07-29T03:18:24;4.23;;;2.37;;
23288;SDS011;11813;50.834;4.280;2022-07-29T03:20:50;3.63;;;2.17;;
23288;SDS011;11813;50.834;4.280;2022-07-29T03:23:20;5.47;;;2.67;;
23288;SDS011;11813;50.834;4.280;2022-07-29T03:25:49;4.70;;;2.53;;
23288;SDS011;11813;50.834;4.280;2022-07-29T03:28:15;4.87;;;2.57;;
23288;SDS011;11813;50.834;4.280;2022-07-29T03:30:41;5.07;;;2.77;;
23288;SDS011;11813;50.834;4.280;2022-07-29T03:33:06;9.17;;;2.60;;
23288;SDS011;11813;50.834;4.280;2022-07-29T03:35:32;3.47;;;2.63;;
23288;SDS011;11813;50.834;4.280;2022-07-29T03:37:58;6.47;;;2.90;;
23288;SDS011;11813;50.834;4.280;2022-07-29T03:40:26;4.33;;;2.40;;
23288;SDS011;11813;50.834;4.280;2022-07-29T03:42:57;6.40;;;2.60;;
23288;SDS011;11813;50.834;4.280;2022-07-29T03:45:25;4.53;;;2.17;;
23288;SDS011;11813;50.834;4.280;2022-07-29T03:47:55;3.73;;;2.40;;
23288;SDS011;11813;50.834;4.280;2022-07-29T03:50:24;4.33;;;2.60;;
23288;SDS011;11813;50.834;4.280;2022-07-29T03:52:50;7.43;;;2.70;;
23288;SDS011;11813;50.834;4.280;2022-07-29T03:55:16;2.70;;;2.50;;
23288;SDS011;11813;50.834;4.280;2022-07-29T03:57:43;3.77;;;2.57;;
23288;SDS011;11813;50.834;4.280;2022-07-29T04:00:10;4.07;;;2.80;;
23288;SDS011;11813;50.834;4.280;2022-07-29T04:02:36;4.73;;;2.60;;
23288;SDS011;11813;50.834;4.280;2022-07-29T04:05:03;7.03;;;3.00;;
23288;SDS011;11813;50.834;4.280;2022-07-29T04:07:29;6.53;;;2.60;;
23288;SDS011;11813;50.834;4.280;2022-07-29T04:09:55;6.37;;;3.20;;
23288;SDS011;11813;50.834;4.280;2022-07-29T04:12:20;4.77;;;2.57;;
23288;SDS011;11813;50.834;4.280;2022-07-29T04:14:46;5.80;;;3.20;;
23288;SDS011;11813;50.834;4.280;2022-07-29T04:17:12;4.20;;;2.83;;
23288;SDS011;11813;50.834;4.280;2022-07-29T04:19:37;8.23;;;3.00;;
23288;SDS011;11813;50.834;4.280;2022-07-29T04:22:03;6.90;;;3.50;;
23288;SDS011;11813;50.834;4.280;2022-07-29T04:24:29;4.80;;;3.30;;
23288;SDS011;11813;50.834;4.280;2022-07-29T04:26:54;9.07;;;3.03;;
23288;SDS011;11813;50.834;4.280;2022-07-29T04:29:20;5.77;;;3.70;;
23288;SDS011;11813;50.834;4.280;2022-07-29T04:31:46;6.13;;;3.20;;
23288;SDS011;11813;50.834;4.280;2022-07-29T04:34:12;3.97;;;2.90;;
23288;SDS011;11813;50.834;4.280;2022-07-29T04:36:38;7.77;;;3.20;;
23288;SDS011;11813;50.834;4.280;2022-07-29T04:39:04;6.33;;;3.50;;
23288;SDS011;11813;50.834;4.280;2022-07-29T04:41:29;12.57;;;3.33;;
23288;SDS011;11813;50.834;4.280;2022-07-29T04:43:55;5.87;;;3.40;;
23288;SDS011;11813;50.834;4.280;2022-07-29T04:46:21;4.73;;;3.57;;
23288;SDS011;11813;50.834;4.280;2022-07-29T04:48:47;10.67;;;3.77;;
23288;SDS011;11813;50.834;4.280;2022-07-29T04:51:16;8.03;;;4.23;;
23288;SDS011;11813;50.834;4.280;2022-07-29T04:53:41;6.13;;;3.93;;
23288;SDS011;11813;50.834;4.280;2022-07-29T04:56:07;6.47;;;3.50;;
23288;SDS011;11813;50.834;4.280;2022-07-29T04:58:36;9.90;;;3.83;;
23288;SDS011;11813;50.834;4.280;2022-07-29T05:01:02;5.87;;;3.83;;
23288;SDS011;11813;50.834;4.280;2022-07-29T05:03:28;6.83;;;3.70;;
23288;SDS011;11813;50.834;4.280;2022-07-29T05:05:54;7.10;;;3.40;;
23288;SDS011;11813;50.834;4.280;2022-07-29T05:08:19;14.53;;;4.33;;
23288;SDS011;11813;50.834;4.280;2022-07-29T05:10:45;5.50;;;3.23;;
23288;SDS011;11813;50.834;4.280;2022-07-29T05:13:11;9.53;;;3.70;;
23288;SDS011;11813;50.834;4.280;2022-07-29T05:15:37;6.03;;;3.50;;
23288;SDS011;11813;50.834;4.280;2022-07-29T05:18:03;7.83;;;3.50;;
23288;SDS011;11813;50.834;4.280;2022-07-29T05:20:30;6.07;;;3.77;;
23288;SDS011;11813;50.834;4.280;2022-07-29T05:22:56;6.50;;;3.90;;
23288;SDS011;11813;50.834;4.280;2022-07-29T05:25:23;7.07;;;3.27;;
23288;SDS011;11813;50.834;4.280;2022-07-29T05:27:49;6.97;;;3.70;;
23288;SDS011;11813;50.834;4.280;2022-07-29T05:30:14;5.67;;;3.70;;
23288;SDS011;11813;50.834;4.280;2022-07-29T05:32:40;6.23;;;3.50;;
23288;SDS011;11813;50.834;4.280;2022-07-29T05:35:06;7.97;;;3.57;;
23288;SDS011;11813;50.834;4.280;2022-07-29T05:37:31;9.17;;;3.83;;
23288;SDS011;11813;50.834;4.280;2022-07-29T05:39:58;6.20;;;4.07;;
23288;SDS011;11813;50.834;4.280;2022-07-29T05:42:24;7.40;;;3.93;;
23288;SDS011;11813;50.834;4.280;2022-07-29T05:44:50;8.10;;;3.70;;
23288;SDS011;11813;50.834;4.280;2022-07-29T05:47:16;8.80;;;4.67;;
23288;SDS011;11813;50.834;4.280;2022-07-29T05:49:42;8.33;;;4.07;;
23288;SDS011;11813;50.834;4.280;2022-07-29T05:52:07;5.50;;;3.43;;
23288;SDS011;11813;50.834;4.280;2022-07-29T05:54:34;8.27;;;4.83;;
23288;SDS011;11813;50.834;4.280;2022-07-29T05:57:00;6.50;;;3.50;;
23288;SDS011;11813;50.834;4.280;2022-07-29T05:59:26;7.90;;;3.70;;
23288;SDS011;11813;50.834;4.280;2022-07-29T06:01:52;5.70;;;4.10;;
23288;SDS011;11813;50.834;4.280;2022-07-29T06:04:17;7.97;;;3.70;;
23288;SDS011;11813;50.834;4.280;2022-07-29T06:06:43;5.43;;;3.80;;
23288;SDS011;11813;50.834;4.280;2022-07-29T06:09:08;8.67;;;3.70;;
23288;SDS011;11813;50.834;4.280;2022-07-29T06:11:34;6.77;;;3.60;;
23288;SDS011;11813;50.834;4.280;2022-07-29T06:13:59;9.13;;;4.00;;
23288;SDS011;11813;50.834;4.280;2022-07-29T06:16:25;7.83;;;4.07;;
23288;SDS011;11813;50.834;4.280;2022-07-29T06:18:51;5.70;;;3.73;;
23288;SDS011;11813;50.834;4.280;2022-07-29T06:21:17;7.40;;;4.00;;
23288;SDS011;11813;50.834;4.280;2022-07-29T06:23:42;6.27;;;4.10;;
23288;SDS011;11813;50.834;4.280;2022-07-29T06:26:10;13.33;;;4.40;;
23288;SDS011;11813;50.834;4.280;2022-07-29T06:28:35;6.33;;;4.77;;
23288;SDS011;11813;50.834;4.280;2022-07-29T06:31:01;10.27;;;5.03;;
23288;SDS011;11813;50.834;4.280;2022-07-29T06:33:27;11.47;;;4.80;;
23288;SDS011;11813;50.834;4.280;2022-07-29T06:35:52;6.47;;;4.60;;
23288;SDS011;11813;50.834;4.280;2022-07-29T06:38:18;6.57;;;4.37;;
23288;SDS011;11813;50.834;4.280;2022-07-29T06:40:44;9.73;;;4.53;;
23288;SDS011;11813;50.834;4.280;2022-07-29T06:43:26;7.47;;;4.70;;
23288;SDS011;11813;50.834;4.280;2022-07-29T06:46:10;7.10;;;4.45;;
23288;SDS011;11813;50.834;4.280;2022-07-29T06:48:40;9.30;;;4.25;;
23288;SDS011;11813;50.834;4.280;2022-07-29T06:51:07;7.85;;;3.72;;
23288;SDS011;11813;50.834;4.280;2022-07-29T06:53:34;6.78;;;4.43;;
23288;SDS011;11813;50.834;4.280;2022-07-29T06:56:00;8.77;;;4.40;;
23288;SDS011;11813;50.834;4.280;2022-07-29T06:58:27;9.55;;;3.90;;
23288;SDS011;11813;50.834;4.280;2022-07-29T07:00:53;16.35;;;5.55;;
23288;SDS011;11813;50.834;4.280;2022-07-29T07:03:20;8.35;;;5.15;;
23288;SDS011;11813;50.834;4.280;2022-07-29T07:05:46;6.63;;;4.03;;
23288;SDS011;11813;50.834;4.280;2022-07-29T07:08:12;9.20;;;4.00;;
23288;SDS011;11813;50.834;4.280;2022-07-29T07:10:38;5.95;;;3.63;;
23288;SDS011;11813;50.834;4.280;2022-07-29T07:13:03;7.13;;;3.90;;
23288;SDS011;11813;50.834;4.280;2022-07-29T07:15:30;7.40;;;4.20;;
23288;SDS011;11813;50.834;4.280;2022-07-29T07:17:56;6.10;;;3.80;;
23288;SDS011;11813;50.834;4.280;2022-07-29T07:20:22;6.40;;;3.55;;
23288;SDS011;11813;50.834;4.280;2022-07-29T07:22:49;6.93;;;3.67;;
23288;SDS011;11813;50.834;4.280;2022-07-29T07:25:14;8.70;;;4.38;;
23288;SDS011;11813;50.834;4.280;2022-07-29T07:27:42;6.55;;;3.42;;
23288;SDS011;11813;50.834;4.280;2022-07-29T07:30:08;8.43;;;3.65;;
23288;SDS011;11813;50.834;4.280;2022-07-29T07:32:34;6.47;;;3.75;;
23288;SDS011;11813;50.834;4.280;2022-07-29T07:35:01;5.97;;;3.60;;
23288;SDS011;11813;50.834;4.280;2022-07-29T07:37:27;5.25;;;3.78;;
23288;SDS011;11813;50.834;4.280;2022-07-29T07:39:53;7.70;;;3.47;;
23288;SDS011;11813;50.834;4.280;2022-07-29T07:42:19;4.68;;;4.10;;
23288;SDS011;11813;50.834;4.280;2022-07-29T07:44:45;12.02;;;4.30;;
23288;SDS011;11813;50.834;4.280;2022-07-29T07:47:11;8.90;;;4.30;;
23288;SDS011;11813;50.834;4.280;2022-07-29T07:49:37;5.32;;;3.72;;
23288;SDS011;11813;50.834;4.280;2022-07-29T07:52:03;6.47;;;3.58;;
23288;SDS011;11813;50.834;4.280;2022-07-29T07:54:29;8.93;;;3.85;;
23288;SDS011;11813;50.834;4.280;2022-07-29T07:56:55;4.38;;;3.83;;
23288;SDS011;11813;50.834;4.280;2022-07-29T07:59:21;6.30;;;4.25;;
23288;SDS011;11813;50.834;4.280;2022-07-29T08:01:48;7.35;;;3.92;;
23288;SDS011;11813;50.834;4.280;2022-07-29T08:04:14;5.72;;;3.35;;
23288;SDS011;11813;50.834;4.280;2022-07-29T08:06:40;6.00;;;3.25;;
23288;SDS011;11813;50.834;4.280;2022-07-29T08:09:06;8.55;;;3.55;;
23288;SDS011;11813;50.834;4.280;2022-07-29T08:11:32;7.53;;;3.20;;
23288;SDS011;11813;50.834;4.280;2022-07-29T08:13:57;4.55;;;3.42;;
23288;SDS011;11813;50.834;4.280;2022-07-29T08:16:23;6.55;;;3.75;;
23288;SDS011;11813;50.834;4.280;2022-07-29T08:18:50;8.88;;;3.85;;
23288;SDS011;11813;50.834;4.280;2022-07-29T08:21:16;5.53;;;3.47;;
23288;SDS011;11813;50.834;4.280;2022-07-29T08:23:45;6.70;;;3.30;;
23288;SDS011;11813;50.834;4.280;2022-07-29T08:26:14;7.55;;;3.58;;
23288;SDS011;11813;50.834;4.280;2022-07-29T08:28:40;4.70;;;3.25;;
23288;SDS011;11813;50.834;4.280;2022-07-29T08:31:10;8.05;;;3.40;;
23288;SDS011;11813;50.834;4.280;2022-07-29T08:33:37;4.07;;;3.42;;
23288;SDS011;11813;50.834;4.280;2022-07-29T08:36:02;5.78;;;3.10;;
23288;SDS011;11813;50.834;4.280;2022-07-29T08:38:28;8.68;;;3.45;;
23288;SDS011;11813;50.834;4.280;2022-07-29T08:40:54;6.88;;;3.75;;
23288;SDS011;11813;50.834;4.280;2022-07-29T08:43:20;5.05;;;3.58;;
23288;SDS011;11813;50.834;4.280;2022-07-29T08:45:46;9.77;;;3.63;;
23288;SDS011;11813;50.834;4.280;2022-07-29T08:48:16;9.25;;;3.47;;
23288;SDS011;11813;50.834;4.280;2022-07-29T08:50:44;5.82;;;3.20;;
23288;SDS011;11813;50.834;4.280;2022-07-29T08:53:11;11.45;;;3.40;;
23288;SDS011;11813;50.834;4.280;2022-07-29T08:55:39;8.02;;;3.70;;
23288;SDS011;11813;50.834;4.280;2022-07-29T08:58:07;4.30;;;3.15;;
23288;SDS011;11813;50.834;4.280;2022-07-29T09:00:33;4.35;;;3.15;;
23288;SDS011;11813;50.834;4.280;2022-07-29T09:03:01;7.20;;;2.95;;
23288;SDS011;11813;50.834;4.280;2022-07-29T09:05:28;3.17;;;2.55;;
23288;SDS011;11813;50.834;4.280;2022-07-29T09:07:54;3.83;;;2.25;;
23288;SDS011;11813;50.834;4.280;2022-07-29T09:10:20;9.98;;;2.60;;
23288;SDS011;11813;50.834;4.280;2022-07-29T09:12:46;4.22;;;2.60;;
23288;SDS011;11813;50.834;4.280;2022-07-29T09:15:12;8.85;;;2.90;;
23288;SDS011;11813;50.834;4.280;2022-07-29T09:17:41;5.13;;;2.55;;
23288;SDS011;11813;50.834;4.280;2022-07-29T09:20:08;8.05;;;3.47;;
23288;SDS011;11813;50.834;4.280;2022-07-29T09:22:35;3.88;;;2.30;;
23288;SDS011;11813;50.834;4.280;2022-07-29T09:25:01;5.05;;;2.20;;
23288;SDS011;11813;50.834;4.280;2022-07-29T09:27:27;3.22;;;2.35;;
23288;SDS011;11813;50.834;4.280;2022-07-29T09:29:57;4.93;;;2.83;;
23288;SDS011;11813;50.834;4.280;2022-07-29T09:32:29;5.13;;;2.20;;
23288;SDS011;11813;50.834;4.280;2022-07-29T09:35:14;2.85;;;2.28;;
23288;SDS011;11813;50.834;4.280;2022-07-29T09:37:40;5.25;;;2.70;;
23288;SDS011;11813;50.834;4.280;2022-07-29T15:30:41;7.07;;;2.55;;
23288;SDS011;11813;50.834;4.280;2022-07-29T15:33:07;7.88;;;3.50;;
23288;SDS011;11813;50.834;4.280;2022-07-29T15:35:34;8.35;;;3.28;;
23288;SDS011;11813;50.834;4.280;2022-07-29T15:38:03;7.60;;;2.83;;
23288;SDS011;11813;50.834;4.280;2022-07-29T15:40:29;5.90;;;3.13;;
23288;SDS011;11813;50.834;4.280;2022-07-29T15:42:54;6.40;;;3.80;;
23288;SDS011;11813;50.834;4.280;2022-07-29T15:45:20;8.65;;;3.80;;
23288;SDS011;11813;50.834;4.280;2022-07-29T15:47:45;4.78;;;3.30;;
23288;SDS011;11813;50.834;4.280;2022-07-29T15:50:11;4.00;;;3.60;;
23288;SDS011;11813;50.834;4.280;2022-07-29T15:52:40;8.13;;;3.33;;
23288;SDS011;11813;50.834;4.280;2022-07-29T15:55:06;6.45;;;3.40;;
23288;SDS011;11813;50.834;4.280;2022-07-29T15:57:33;5.90;;;3.95;;
23288;SDS011;11813;50.834;4.280;2022-07-29T15:59:58;11.75;;;3.60;;
23288;SDS011;11813;50.834;4.280;2022-07-29T16:02:24;6.28;;;3.28;;
23288;SDS011;11813;50.834;4.280;2022-07-29T16:04:50;4.43;;;3.38;;
23288;SDS011;11813;50.834;4.280;2022-07-29T16:07:15;5.45;;;3.33;;
23288;SDS011;11813;50.834;4.280;2022-07-29T16:09:43;6.50;;;3.45;;
23288;SDS011;11813;50.834;4.280;2022-07-29T16:12:09;6.53;;;3.40;;
23288;SDS011;11813;50.834;4.280;2022-07-29T16:14:34;5.05;;;3.40;;
23288;SDS011;11813;50.834;4.280;2022-07-29T16:17:00;6.05;;;3.42;;
23288;SDS011;11813;50.834;4.280;2022-07-29T16:19:27;11.05;;;3.30;;
23288;SDS011;11813;50.834;4.280;2022-07-29T16:21:54;5.30;;;2.88;;
23288;SDS011;11813;50.834;4.280;2022-07-29T16:24:19;8.55;;;3.38;;
23288;SDS011;11813;50.834;4.280;2022-07-29T16:26:45;8.35;;;2.65;;
23288;SDS011;11813;50.834;4.280;2022-07-29T16:29:10;4.50;;;3.45;;
23288;SDS011;11813;50.834;4.280;2022-07-29T16:31:36;7.57;;;3.50;;
23288;SDS011;11813;50.834;4.280;2022-07-29T16:34:01;4.68;;;2.40;;
23288;SDS011;11813;50.834;4.280;2022-07-29T16:36:27;4.63;;;3.00;;
23288;SDS011;11813;50.834;4.280;2022-07-29T16:38:53;7.22;;;3.13;;
23288;SDS011;11813;50.834;4.280;2022-07-29T16:41:18;4.25;;;2.97;;
23288;SDS011;11813;50.834;4.280;2022-07-29T16:43:44;6.30;;;2.97;;
23288;SDS011;11813;50.834;4.280;2022-07-29T16:46:09;3.22;;;2.92;;
23288;SDS011;11813;50.834;4.280;2022-07-29T16:48:35;6.90;;;2.85;;
23288;SDS011;11813;50.834;4.280;2022-07-29T16:51:03;4.75;;;3.08;;
23288;SDS011;11813;50.834;4.280;2022-07-29T16:53:29;4.22;;;2.55;;
23288;SDS011;11813;50.834;4.280;2022-07-29T16:55:55;4.60;;;3.10;;
23288;SDS011;11813;50.834;4.280;2022-07-29T16:58:21;8.70;;;3.10;;
23288;SDS011;11813;50.834;4.280;2022-07-29T17:00:46;3.70;;;3.20;;
23288;SDS011;11813;50.834;4.280;2022-07-29T17:03:12;4.55;;;2.60;;
23288;SDS011;11813;50.834;4.280;2022-07-29T17:05:37;4.10;;;2.47;;
23288;SDS011;11813;50.834;4.280;2022-07-29T17:08:03;7.15;;;2.53;;
23288;SDS011;11813;50.834;4.280;2022-07-29T17:10:28;6.90;;;3.25;;
23288;SDS011;11813;50.834;4.280;2022-07-29T17:12:54;8.55;;;3.10;;
23288;SDS011;11813;50.834;4.280;2022-07-29T17:15:20;5.47;;;2.60;;
23288;SDS011;11813;50.834;4.280;2022-07-29T17:17:45;3.50;;;2.67;;
23288;SDS011;11813;50.834;4.280;2022-07-29T17:20:12;8.52;;;3.20;;
23288;SDS011;11813;50.834;4.280;2022-07-29T17:22:38;6.88;;;2.65;;
23288;SDS011;11813;50.834;4.280;2022-07-29T17:25:05;4.45;;;2.60;;
23288;SDS011;11813;50.834;4.280;2022-07-29T17:27:31;10.40;;;3.13;;
23288;SDS011;11813;50.834;4.280;2022-07-29T17:29:57;9.27;;;3.13;;
23288;SDS011;11813;50.834;4.280;2022-07-29T17:32:23;8.70;;;2.72;;
23288;SDS011;11813;50.834;4.280;2022-07-29T17:34:49;7.05;;;2.58;;
23288;SDS011;11813;50.834;4.280;2022-07-29T17:37:14;5.95;;;2.70;;
23288;SDS011;11813;50.834;4.280;2022-07-29T17:39:40;4.97;;;2.42;;
23288;SDS011;11813;50.834;4.280;2022-07-29T17:42:07;5.35;;;2.50;;
23288;SDS011;11813;50.834;4.280;2022-07-29T17:44:34;8.95;;;2.92;;
23288;SDS011;11813;50.834;4.280;2022-07-29T17:46:59;6.20;;;3.28;;
23288;SDS011;11813;50.834;4.280;2022-07-29T17:49:25;8.43;;;3.45;;
23288;SDS011;11813;50.834;4.280;2022-07-29T17:51:52;12.00;;;2.55;;
23288;SDS011;11813;50.834;4.280;2022-07-29T17:54:17;6.13;;;3.15;;
23288;SDS011;11813;50.834;4.280;2022-07-29T17:56:43;7.90;;;2.72;;
23288;SDS011;11813;50.834;4.280;2022-07-29T17:59:09;7.97;;;3.00;;
23288;SDS011;11813;50.834;4.280;2022-07-29T18:01:35;9.70;;;3.13;;
23288;SDS011;11813;50.834;4.280;2022-07-29T18:04:02;7.57;;;2.85;;
23288;SDS011;11813;50.834;4.280;2022-07-29T18:06:28;6.45;;;3.03;;
23288;SDS011;11813;50.834;4.280;2022-07-29T18:08:53;5.35;;;2.85;;
23288;SDS011;11813;50.834;4.280;2022-07-29T18:11:20;6.65;;;2.25;;
23288;SDS011;11813;50.834;4.280;2022-07-29T18:13:46;6.15;;;2.67;;
23288;SDS011;11813;50.834;4.280;2022-07-29T18:16:11;6.70;;;2.67;;
23288;SDS011;11813;50.834;4.280;2022-07-29T18:18:37;5.95;;;2.47;;
23288;SDS011;11813;50.834;4.280;2022-07-29T18:21:03;7.60;;;2.65;;
23288;SDS011;11813;50.834;4.280;2022-07-29T18:23:29;4.28;;;2.58;;
23288;SDS011;11813;50.834;4.280;2022-07-29T18:25:55;4.95;;;3.00;;
23288;SDS011;11813;50.834;4.280;2022-07-29T18:28:20;4.70;;;2.17;;
23288;SDS011;11813;50.834;4.280;2022-07-29T18:30:46;4.10;;;2.33;;
23288;SDS011;11813;50.834;4.280;2022-07-29T18:33:12;11.60;;;2.67;;
23288;SDS011;11813;50.834;4.280;2022-07-29T18:35:41;4.40;;;2.25;;
23288;SDS011;11813;50.834;4.280;2022-07-29T18:38:08;7.35;;;2.72;;
23288;SDS011;11813;50.834;4.280;2022-07-29T18:40:34;5.40;;;2.63;;
23288;SDS011;11813;50.834;4.280;2022-07-29T18:42:59;7.32;;;3.20;;
23288;SDS011;11813;50.834;4.280;2022-07-29T18:45:25;5.30;;;2.75;;
23288;SDS011;11813;50.834;4.280;2022-07-29T18:47:51;5.57;;;2.60;;
23288;SDS011;11813;50.834;4.280;2022-07-29T18:50:16;7.53;;;2.47;;
23288;SDS011;11813;50.834;4.280;2022-07-29T18:52:43;8.70;;;2.92;;
23288;SDS011;11813;50.834;4.280;2022-07-29T18:55:12;6.68;;;2.70;;
23288;SDS011;11813;50.834;4.280;2022-07-29T18:57:38;6.50;;;3.17;;
23288;SDS011;11813;50.834;4.280;2022-07-29T19:00:04;13.13;;;2.60;;
23288;SDS011;11813;50.834;4.280;2022-07-29T19:02:30;3.70;;;2.63;;
23288;SDS011;11813;50.834;4.280;2022-07-29T19:04:56;7.43;;;2.88;;
23288;SDS011;11813;50.834;4.280;2022-07-29T19:07:21;6.20;;;2.95;;
23288;SDS011;11813;50.834;4.280;2022-07-29T19:09:49;9.02;;;2.45;;
23288;SDS011;11813;50.834;4.280;2022-07-29T19:12:17;7.88;;;3.17;;
23288;SDS011;11813;50.834;4.280;2022-07-29T19:14:42;6.53;;;2.58;;
23288;SDS011;11813;50.834;4.280;2022-07-29T19:17:08;7.40;;;2.55;;
23288;SDS011;11813;50.834;4.280;2022-07-29T19:19:34;7.97;;;2.90;;
23288;SDS011;11813;50.834;4.280;2022-07-29T19:21:59;6.65;;;2.60;;
23288;SDS011;11813;50.834;4.280;2022-07-29T19:24:26;7.55;;;3.10;;
23288;SDS011;11813;50.834;4.280;2022-07-29T19:26:52;4.38;;;2.70;;
23288;SDS011;11813;50.834;4.280;2022-07-29T19:29:18;7.45;;;2.58;;
23288;SDS011;11813;50.834;4.280;2022-07-29T19:31:44;9.98;;;2.78;;
23288;SDS011;11813;50.834;4.280;2022-07-29T19:34:10;7.38;;;2.80;;
23288;SDS011;11813;50.834;4.280;2022-07-29T19:36:36;13.10;;;2.58;;
23288;SDS011;11813;50.834;4.280;2022-07-29T19:39:02;8.32;;;2.78;;
23288;SDS011;11813;50.834;4.280;2022-07-29T19:41:28;4.93;;;2.50;;
23288;SDS011;11813;50.834;4.280;2022-07-29T19:43:54;10.02;;;2.63;;
23288;SDS011;11813;50.834;4.280;2022-07-29T19:46:20;5.72;;;2.38;;
23288;SDS011;11813;50.834;4.280;2022-07-29T19:48:46;11.40;;;3.15;;
23288;SDS011;11813;50.834;4.280;2022-07-29T19:51:12;8.93;;;2.58;;
23288;SDS011;11813;50.834;4.280;2022-07-29T19:53:38;5.40;;;2.33;;
23288;SDS011;11813;50.834;4.280;2022-07-29T19:56:03;6.07;;;2.40;;
23288;SDS011;11813;50.834;4.280;2022-07-29T19:58:29;7.35;;;2.90;;
23288;SDS011;11813;50.834;4.280;2022-07-29T20:00:55;6.80;;;2.40;;
23288;SDS011;11813;50.834;4.280;2022-07-29T20:03:20;3.75;;;2.25;;
23288;SDS011;11813;50.834;4.280;2022-07-29T20:05:46;5.82;;;2.08;;
23288;SDS011;11813;50.834;4.280;2022-07-29T20:08:15;7.75;;;2.15;;
23288;SDS011;11813;50.834;4.280;2022-07-29T20:10:41;6.45;;;2.85;;
23288;SDS011;11813;50.834;4.280;2022-07-29T20:13:07;5.20;;;2.55;;
23288;SDS011;11813;50.834;4.280;2022-07-29T20:15:33;4.38;;;2.38;;
23288;SDS011;11813;50.834;4.280;2022-07-29T20:17:58;6.78;;;2.33;;
23288;SDS011;11813;50.834;4.280;2022-07-29T20:20:24;6.53;;;2.95;;
23288;SDS011;11813;50.834;4.280;2022-07-29T20:22:50;5.22;;;3.00;;
23288;SDS011;11813;50.834;4.280;2022-07-29T20:25:16;6.22;;;2.88;;
23288;SDS011;11813;50.834;4.280;2022-07-29T20:27:42;5.82;;;2.60;;
23288;SDS011;11813;50.834;4.280;2022-07-29T20:30:08;3.15;;;2.33;;
23288;SDS011;11813;50.834;4.280;2022-07-29T20:32:37;3.78;;;2.30;;
23288;SDS011;11813;50.834;4.280;2022-07-29T20:35:04;5.90;;;2.28;;
23288;SDS011;11813;50.834;4.280;2022-07-29T20:37:30;2.83;;;2.33;;
23288;SDS011;11813;50.834;4.280;2022-07-29T20:39:56;5.05;;;2.25;;
23288;SDS011;11813;50.834;4.280;2022-07-29T20:42:22;6.10;;;2.47;;
23288;SDS011;11813;50.834;4.280;2022-07-29T20:44:47;7.88;;;2.38;;
23288;SDS011;11813;50.834;4.280;2022-07-29T20:47:15;11.45;;;2.50;;
23288;SDS011;11813;50.834;4.280;2022-07-29T20:49:40;10.55;;;2.78;;